sensor_id;sensor_type;location;lat;lon;timestamp;P1;durP1;ratioP1;P2;durP2;ratioP2
16662;SDS011;8445;51.270;9.434;2023-03-14T00:02:25;3.25;;;1.85;;
16662;SDS011;8445;51.270;9.434;2023-03-14T00:04:53;2.23;;;1.60;;
16662;SDS011;8445;51.270;9.434;2023-03-14T00:07:22;2.60;;;1.70;;
16662;SDS011;8445;51.270;9.434;2023-03-14T00:09:50;4.95;;;1.98;;
16662;SDS011;8445;51.270;9.434;2023-03-14T00:12:16;4.80;;;1.90;;
16662;SDS011;8445;51.270;9.434;2023-03-14T00:14:41;2.08;;;1.63;;
16662;SDS011;8445;51.270;9.434;2023-03-14T00:17:08;3.15;;;2.13;;
16662;SDS011;8445;51.270;9.434;2023-03-14T00:19:41;1.80;;;1.60;;
16662;SDS011;8445;51.270;9.434;2023-03-14T00:22:06;2.60;;;1.92;;
16662;SDS011;8445;51.270;9.434;2023-03-14T00:24:34;2.33;;;1.50;;
16662;SDS011;8445;51.270;9.434;2023-03-14T00:27:00;1.70;;;1.60;;
16662;SDS011;8445;51.270;9.434;2023-03-14T00:29:27;1.90;;;1.60;;
16662;SDS011;8445;51.270;9.434;2023-03-14T00:31:55;3.03;;;1.60;;
16662;SDS011;8445;51.270;9.434;2023-03-14T00:34:23;2.15;;;1.70;;
16662;SDS011;8445;51.270;9.434;2023-03-14T00:36:53;2.60;;;1.53;;
16662;SDS011;8445;51.270;9.434;2023-03-14T00:39:21;1.58;;;1.33;;
16662;SDS011;8445;51.270;9.434;2023-03-14T00:41:49;1.98;;;1.30;;
16662;SDS011;8445;51.270;9.434;2023-03-14T00:44:17;2.22;;;1.67;;
16662;SDS011;8445;51.270;9.434;2023-03-14T00:46:43;2.65;;;1.73;;
16662;SDS011;8445;51.270;9.434;2023-03-14T00:49:08;2.20;;;2.00;;
16662;SDS011;8445;51.270;9.434;2023-03-14T00:51:33;2.45;;;1.70;;
16662;SDS011;8445;51.270;9.434;2023-03-14T00:54:01;2.40;;;2.15;;
16662;SDS011;8445;51.270;9.434;2023-03-14T00:56:27;2.92;;;2.42;;
16662;SDS011;8445;51.270;9.434;2023-03-14T00:58:55;2.22;;;1.90;;
16662;SDS011;8445;51.270;9.434;2023-03-14T01:01:22;5.20;;;1.75;;
16662;SDS011;8445;51.270;9.434;2023-03-14T01:03:53;2.17;;;2.08;;
16662;SDS011;8445;51.270;9.434;2023-03-14T01:06:26;3.13;;;1.70;;
16662;SDS011;8445;51.270;9.434;2023-03-14T01:08:53;3.97;;;1.65;;
16662;SDS011;8445;51.270;9.434;2023-03-14T01:11:23;2.55;;;1.83;;
16662;SDS011;8445;51.270;9.434;2023-03-14T01:13:53;3.58;;;2.13;;
16662;SDS011;8445;51.270;9.434;2023-03-14T01:16:19;3.20;;;1.85;;
16662;SDS011;8445;51.270;9.434;2023-03-14T01:18:46;6.50;;;2.15;;
16662;SDS011;8445;51.270;9.434;2023-03-14T01:21:13;1.70;;;1.55;;
16662;SDS011;8445;51.270;9.434;2023-03-14T01:23:50;1.70;;;1.60;;
16662;SDS011;8445;51.270;9.434;2023-03-14T01:26:18;3.50;;;1.90;;
16662;SDS011;8445;51.270;9.434;2023-03-14T01:28:48;3.17;;;2.03;;
16662;SDS011;8445;51.270;9.434;2023-03-14T01:31:17;4.63;;;2.40;;
16662;SDS011;8445;51.270;9.434;2023-03-14T01:33:42;1.92;;;1.83;;
16662;SDS011;8445;51.270;9.434;2023-03-14T01:36:11;3.50;;;2.30;;
16662;SDS011;8445;51.270;9.434;2023-03-14T01:38:41;4.03;;;2.22;;
16662;SDS011;8445;51.270;9.434;2023-03-14T01:41:12;2.28;;;1.90;;
16662;SDS011;8445;51.270;9.434;2023-03-14T01:43:41;3.92;;;2.42;;
16662;SDS011;8445;51.270;9.434;2023-03-14T01:46:29;3.17;;;2.55;;
16662;SDS011;8445;51.270;9.434;2023-03-14T01:52:02;4.13;;;3.15;;
16662;SDS011;8445;51.270;9.434;2023-03-14T01:54:44;3.13;;;2.63;;
16662;SDS011;8445;51.270;9.434;2023-03-14T01:57:20;5.13;;;3.00;;
16662;SDS011;8445;51.270;9.434;2023-03-14T01:59:52;3.25;;;2.50;;
16662;SDS011;8445;51.270;9.434;2023-03-14T02:02:23;2.75;;;2.55;;
16662;SDS011;8445;51.270;9.434;2023-03-14T02:04:54;5.68;;;3.20;;
16662;SDS011;8445;51.270;9.434;2023-03-14T02:07:30;3.28;;;2.90;;
16662;SDS011;8445;51.270;9.434;2023-03-14T02:10:11;6.43;;;3.28;;
16662;SDS011;8445;51.270;9.434;2023-03-14T02:12:37;4.97;;;2.50;;
16662;SDS011;8445;51.270;9.434;2023-03-14T02:15:11;4.03;;;3.10;;
16662;SDS011;8445;51.270;9.434;2023-03-14T02:17:59;7.60;;;3.15;;
16662;SDS011;8445;51.270;9.434;2023-03-14T02:20:47;6.65;;;2.97;;
16662;SDS011;8445;51.270;9.434;2023-03-14T02:23:31;5.18;;;2.80;;
16662;SDS011;8445;51.270;9.434;2023-03-14T02:26:16;7.35;;;2.95;;
16662;SDS011;8445;51.270;9.434;2023-03-14T02:28:45;6.47;;;2.95;;
16662;SDS011;8445;51.270;9.434;2023-03-14T02:31:11;2.90;;;2.60;;
16662;SDS011;8445;51.270;9.434;2023-03-14T02:33:38;7.60;;;3.47;;
16662;SDS011;8445;51.270;9.434;2023-03-14T02:36:05;6.85;;;3.15;;
16662;SDS011;8445;51.270;9.434;2023-03-14T02:41:29;5.72;;;3.22;;
16662;SDS011;8445;51.270;9.434;2023-03-14T02:44:01;4.15;;;3.08;;
16662;SDS011;8445;51.270;9.434;2023-03-14T02:46:27;4.45;;;2.55;;
16662;SDS011;8445;51.270;9.434;2023-03-14T02:48:54;4.00;;;2.60;;
16662;SDS011;8445;51.270;9.434;2023-03-14T02:51:22;3.17;;;1.90;;
16662;SDS011;8445;51.270;9.434;2023-03-14T02:53:49;6.82;;;2.55;;
16662;SDS011;8445;51.270;9.434;2023-03-14T02:56:15;3.42;;;2.40;;
16662;SDS011;8445;51.270;9.434;2023-03-14T02:58:40;4.68;;;2.50;;
16662;SDS011;8445;51.270;9.434;2023-03-14T03:01:24;3.33;;;2.40;;
16662;SDS011;8445;51.270;9.434;2023-03-14T03:03:50;3.28;;;2.33;;
16662;SDS011;8445;51.270;9.434;2023-03-14T03:06:18;4.15;;;3.05;;
16662;SDS011;8445;51.270;9.434;2023-03-14T03:08:44;6.07;;;2.58;;
16662;SDS011;8445;51.270;9.434;2023-03-14T03:11:09;5.72;;;3.08;;
16662;SDS011;8445;51.270;9.434;2023-03-14T03:13:35;4.28;;;2.53;;
16662;SDS011;8445;51.270;9.434;2023-03-14T03:16:01;6.50;;;2.65;;
16662;SDS011;8445;51.270;9.434;2023-03-14T03:18:27;4.20;;;2.78;;
16662;SDS011;8445;51.270;9.434;2023-03-14T03:20:53;4.20;;;2.63;;
16662;SDS011;8445;51.270;9.434;2023-03-14T03:23:18;7.75;;;2.83;;
16662;SDS011;8445;51.270;9.434;2023-03-14T03:25:47;5.70;;;2.35;;
16662;SDS011;8445;51.270;9.434;2023-03-14T03:28:14;4.68;;;2.28;;
16662;SDS011;8445;51.270;9.434;2023-03-14T03:30:40;6.65;;;2.17;;
16662;SDS011;8445;51.270;9.434;2023-03-14T03:33:06;4.47;;;2.33;;
16662;SDS011;8445;51.270;9.434;2023-03-14T03:35:33;4.07;;;2.05;;
16662;SDS011;8445;51.270;9.434;2023-03-14T03:37:59;5.15;;;2.53;;
16662;SDS011;8445;51.270;9.434;2023-03-14T03:40:26;4.53;;;2.35;;
16662;SDS011;8445;51.270;9.434;2023-03-14T03:42:52;2.78;;;1.90;;
16662;SDS011;8445;51.270;9.434;2023-03-14T03:45:17;2.60;;;2.05;;
16662;SDS011;8445;51.270;9.434;2023-03-14T03:47:50;5.70;;;2.47;;
16662;SDS011;8445;51.270;9.434;2023-03-14T03:50:15;5.15;;;2.60;;
16662;SDS011;8445;51.270;9.434;2023-03-14T03:52:41;3.35;;;1.90;;
16662;SDS011;8445;51.270;9.434;2023-03-14T03:55:07;7.30;;;2.85;;
16662;SDS011;8445;51.270;9.434;2023-03-14T03:57:32;5.72;;;2.35;;
16662;SDS011;8445;51.270;9.434;2023-03-14T03:59:58;7.22;;;2.38;;
16662;SDS011;8445;51.270;9.434;2023-03-14T04:02:23;6.53;;;2.30;;
16662;SDS011;8445;51.270;9.434;2023-03-14T04:04:49;8.00;;;3.22;;
16662;SDS011;8445;51.270;9.434;2023-03-14T04:07:16;6.28;;;2.70;;
16662;SDS011;8445;51.270;9.434;2023-03-14T04:09:42;4.22;;;2.00;;
16662;SDS011;8445;51.270;9.434;2023-03-14T04:12:25;5.40;;;2.20;;
16662;SDS011;8445;51.270;9.434;2023-03-14T04:14:58;6.95;;;2.60;;
16662;SDS011;8445;51.270;9.434;2023-03-14T04:17:23;5.57;;;2.38;;
16662;SDS011;8445;51.270;9.434;2023-03-14T04:19:49;7.90;;;2.83;;
16662;SDS011;8445;51.270;9.434;2023-03-14T04:22:18;6.25;;;2.58;;
16662;SDS011;8445;51.270;9.434;2023-03-14T04:24:47;5.95;;;2.58;;
16662;SDS011;8445;51.270;9.434;2023-03-14T04:27:12;11.07;;;2.30;;
16662;SDS011;8445;51.270;9.434;2023-03-14T04:29:41;6.75;;;2.38;;
16662;SDS011;8445;51.270;9.434;2023-03-14T04:32:07;7.07;;;2.58;;
16662;SDS011;8445;51.270;9.434;2023-03-14T04:34:33;6.32;;;2.20;;
16662;SDS011;8445;51.270;9.434;2023-03-14T04:36:59;3.30;;;2.15;;
16662;SDS011;8445;51.270;9.434;2023-03-14T04:39:33;7.47;;;2.38;;
16662;SDS011;8445;51.270;9.434;2023-03-14T04:42:07;5.15;;;2.20;;
16662;SDS011;8445;51.270;9.434;2023-03-14T04:44:35;5.43;;;1.88;;
16662;SDS011;8445;51.270;9.434;2023-03-14T04:47:01;6.28;;;2.38;;
16662;SDS011;8445;51.270;9.434;2023-03-14T04:49:26;5.60;;;2.20;;
16662;SDS011;8445;51.270;9.434;2023-03-14T04:51:52;4.00;;;1.98;;
16662;SDS011;8445;51.270;9.434;2023-03-14T04:54:18;6.03;;;2.10;;
16662;SDS011;8445;51.270;9.434;2023-03-14T04:56:47;6.68;;;2.58;;
16662;SDS011;8445;51.270;9.434;2023-03-14T04:59:13;6.28;;;2.42;;
16662;SDS011;8445;51.270;9.434;2023-03-14T05:01:40;4.75;;;2.30;;
16662;SDS011;8445;51.270;9.434;2023-03-14T05:04:25;4.35;;;2.30;;
16662;SDS011;8445;51.270;9.434;2023-03-14T05:07:13;5.28;;;2.15;;
16662;SDS011;8445;51.270;9.434;2023-03-14T05:10:08;5.45;;;2.30;;
16662;SDS011;8445;51.270;9.434;2023-03-14T05:12:53;5.00;;;2.30;;
16662;SDS011;8445;51.270;9.434;2023-03-14T05:15:39;4.47;;;1.95;;
16662;SDS011;8445;51.270;9.434;2023-03-14T05:18:23;4.88;;;1.90;;
16662;SDS011;8445;51.270;9.434;2023-03-14T05:20:58;6.85;;;2.40;;
16662;SDS011;8445;51.270;9.434;2023-03-14T05:23:42;7.53;;;2.07;;
16662;SDS011;8445;51.270;9.434;2023-03-14T05:26:27;6.38;;;2.25;;
16662;SDS011;8445;51.270;9.434;2023-03-14T05:29:12;2.95;;;1.98;;
16662;SDS011;8445;51.270;9.434;2023-03-14T05:31:56;4.13;;;1.90;;
16662;SDS011;8445;51.270;9.434;2023-03-14T05:34:39;4.63;;;1.87;;
16662;SDS011;8445;51.270;9.434;2023-03-14T05:37:31;5.72;;;2.47;;
16662;SDS011;8445;51.270;9.434;2023-03-14T05:40:15;7.35;;;2.30;;
16662;SDS011;8445;51.270;9.434;2023-03-14T05:43:07;4.63;;;2.97;;
16662;SDS011;8445;51.270;9.434;2023-03-14T05:45:48;3.83;;;2.30;;
16662;SDS011;8445;51.270;9.434;2023-03-14T05:48:32;4.93;;;2.78;;
16662;SDS011;8445;51.270;9.434;2023-03-14T05:51:17;4.25;;;2.42;;
16662;SDS011;8445;51.270;9.434;2023-03-14T05:53:49;4.82;;;2.92;;
16662;SDS011;8445;51.270;9.434;2023-03-14T05:56:30;7.20;;;3.17;;
16662;SDS011;8445;51.270;9.434;2023-03-14T05:59:07;5.95;;;3.05;;
16662;SDS011;8445;51.270;9.434;2023-03-14T06:01:55;6.32;;;2.80;;
16662;SDS011;8445;51.270;9.434;2023-03-14T06:04:23;7.03;;;3.15;;
16662;SDS011;8445;51.270;9.434;2023-03-14T06:06:54;6.72;;;3.53;;
16662;SDS011;8445;51.270;9.434;2023-03-14T06:09:20;11.52;;;2.88;;
16662;SDS011;8445;51.270;9.434;2023-03-14T06:11:48;7.03;;;2.70;;
16662;SDS011;8445;51.270;9.434;2023-03-14T06:14:13;6.35;;;2.55;;
16662;SDS011;8445;51.270;9.434;2023-03-14T06:16:43;7.43;;;2.78;;
16662;SDS011;8445;51.270;9.434;2023-03-14T06:19:09;4.75;;;2.83;;
16662;SDS011;8445;51.270;9.434;2023-03-14T06:21:36;7.38;;;3.15;;
16662;SDS011;8445;51.270;9.434;2023-03-14T06:24:01;7.65;;;2.90;;
16662;SDS011;8445;51.270;9.434;2023-03-14T06:26:32;5.32;;;2.60;;
16662;SDS011;8445;51.270;9.434;2023-03-14T06:28:58;6.80;;;2.65;;
16662;SDS011;8445;51.270;9.434;2023-03-14T06:31:31;4.63;;;2.45;;
16662;SDS011;8445;51.270;9.434;2023-03-14T06:34:00;6.82;;;2.60;;
16662;SDS011;8445;51.270;9.434;2023-03-14T06:36:29;5.63;;;2.78;;
16662;SDS011;8445;51.270;9.434;2023-03-14T06:38:55;3.85;;;2.35;;
16662;SDS011;8445;51.270;9.434;2023-03-14T06:41:21;6.78;;;2.85;;
16662;SDS011;8445;51.270;9.434;2023-03-14T06:43:49;4.93;;;2.00;;
16662;SDS011;8445;51.270;9.434;2023-03-14T06:46:15;5.53;;;1.95;;
16662;SDS011;8445;51.270;9.434;2023-03-14T06:48:42;7.00;;;2.97;;
16662;SDS011;8445;51.270;9.434;2023-03-14T06:51:07;5.85;;;1.85;;
16662;SDS011;8445;51.270;9.434;2023-03-14T06:53:36;8.05;;;2.03;;
16662;SDS011;8445;51.270;9.434;2023-03-14T06:56:02;5.25;;;1.92;;
16662;SDS011;8445;51.270;9.434;2023-03-14T06:58:29;3.55;;;1.75;;
16662;SDS011;8445;51.270;9.434;2023-03-14T07:00:54;4.03;;;1.70;;
16662;SDS011;8445;51.270;9.434;2023-03-14T07:03:25;6.53;;;2.80;;
16662;SDS011;8445;51.270;9.434;2023-03-14T07:05:53;3.15;;;1.75;;
16662;SDS011;8445;51.270;9.434;2023-03-14T07:08:18;3.42;;;1.60;;
16662;SDS011;8445;51.270;9.434;2023-03-14T07:10:44;4.32;;;1.60;;
16662;SDS011;8445;51.270;9.434;2023-03-14T07:13:09;5.55;;;1.70;;
16662;SDS011;8445;51.270;9.434;2023-03-14T07:15:45;3.28;;;1.77;;
16662;SDS011;8445;51.270;9.434;2023-03-14T07:18:11;2.03;;;1.27;;
16662;SDS011;8445;51.270;9.434;2023-03-14T07:20:36;5.53;;;1.40;;
16662;SDS011;8445;51.270;9.434;2023-03-14T07:23:03;3.17;;;1.83;;
16662;SDS011;8445;51.270;9.434;2023-03-14T07:25:36;3.85;;;1.67;;
16662;SDS011;8445;51.270;9.434;2023-03-14T07:28:02;5.47;;;1.65;;
16662;SDS011;8445;51.270;9.434;2023-03-14T07:30:28;3.28;;;1.55;;
16662;SDS011;8445;51.270;9.434;2023-03-14T07:32:54;3.85;;;1.70;;
16662;SDS011;8445;51.270;9.434;2023-03-14T07:35:22;4.47;;;1.63;;
16662;SDS011;8445;51.270;9.434;2023-03-14T07:37:48;5.30;;;1.70;;
16662;SDS011;8445;51.270;9.434;2023-03-14T07:40:15;4.28;;;1.58;;
16662;SDS011;8445;51.270;9.434;2023-03-14T07:42:44;3.63;;;1.98;;
16662;SDS011;8445;51.270;9.434;2023-03-14T07:45:35;6.22;;;1.70;;
16662;SDS011;8445;51.270;9.434;2023-03-14T07:48:01;3.67;;;1.55;;
16662;SDS011;8445;51.270;9.434;2023-03-14T07:50:27;3.00;;;1.50;;
16662;SDS011;8445;51.270;9.434;2023-03-14T07:52:54;3.78;;;1.52;;
16662;SDS011;8445;51.270;9.434;2023-03-14T07:55:20;3.25;;;1.35;;
16662;SDS011;8445;51.270;9.434;2023-03-14T07:57:46;2.58;;;1.30;;
16662;SDS011;8445;51.270;9.434;2023-03-14T08:00:11;3.53;;;1.30;;
16662;SDS011;8445;51.270;9.434;2023-03-14T08:02:39;4.13;;;1.52;;
16662;SDS011;8445;51.270;9.434;2023-03-14T08:05:05;3.10;;;1.63;;
16662;SDS011;8445;51.270;9.434;2023-03-14T08:07:31;3.20;;;1.30;;
16662;SDS011;8445;51.270;9.434;2023-03-14T08:09:57;2.47;;;1.38;;
16662;SDS011;8445;51.270;9.434;2023-03-14T08:12:22;2.10;;;1.42;;
16662;SDS011;8445;51.270;9.434;2023-03-14T08:14:47;3.67;;;1.30;;
16662;SDS011;8445;51.270;9.434;2023-03-14T08:17:13;5.20;;;2.08;;
16662;SDS011;8445;51.270;9.434;2023-03-14T08:19:40;3.22;;;1.60;;
16662;SDS011;8445;51.270;9.434;2023-03-14T08:22:06;4.22;;;1.40;;
16662;SDS011;8445;51.270;9.434;2023-03-14T08:24:31;4.40;;;1.33;;
16662;SDS011;8445;51.270;9.434;2023-03-14T08:26:57;2.92;;;1.27;;
16662;SDS011;8445;51.270;9.434;2023-03-14T08:29:22;1.52;;;1.00;;
16662;SDS011;8445;51.270;9.434;2023-03-14T08:31:48;3.00;;;1.30;;
16662;SDS011;8445;51.270;9.434;2023-03-14T08:34:14;1.63;;;1.10;;
16662;SDS011;8445;51.270;9.434;2023-03-14T08:36:40;1.77;;;1.00;;
16662;SDS011;8445;51.270;9.434;2023-03-14T08:39:06;1.75;;;1.23;;
16662;SDS011;8445;51.270;9.434;2023-03-14T08:41:32;2.38;;;1.00;;
16662;SDS011;8445;51.270;9.434;2023-03-14T08:44:00;1.92;;;1.05;;
16662;SDS011;8445;51.270;9.434;2023-03-14T08:46:25;1.85;;;0.80;;
16662;SDS011;8445;51.270;9.434;2023-03-14T08:48:51;2.65;;;0.90;;
16662;SDS011;8445;51.270;9.434;2023-03-14T08:51:16;0.77;;;0.77;;
16662;SDS011;8445;51.270;9.434;2023-03-14T08:53:42;3.10;;;0.90;;
16662;SDS011;8445;51.270;9.434;2023-03-14T08:56:08;2.50;;;0.90;;
16662;SDS011;8445;51.270;9.434;2023-03-14T08:58:35;1.05;;;1.00;;
16662;SDS011;8445;51.270;9.434;2023-03-14T09:01:03;0.98;;;0.70;;
16662;SDS011;8445;51.270;9.434;2023-03-14T09:03:33;2.53;;;0.73;;
16662;SDS011;8445;51.270;9.434;2023-03-14T09:06:06;3.60;;;0.80;;
16662;SDS011;8445;51.270;9.434;2023-03-14T09:08:33;0.80;;;0.80;;
16662;SDS011;8445;51.270;9.434;2023-03-14T09:10:59;0.70;;;0.47;;
16662;SDS011;8445;51.270;9.434;2023-03-14T09:13:25;0.65;;;0.65;;
16662;SDS011;8445;51.270;9.434;2023-03-14T09:15:51;1.77;;;0.75;;
16662;SDS011;8445;51.270;9.434;2023-03-14T09:18:20;1.52;;;0.90;;
16662;SDS011;8445;51.270;9.434;2023-03-14T09:20:46;2.25;;;0.93;;
16662;SDS011;8445;51.270;9.434;2023-03-14T09:23:11;2.25;;;1.00;;
16662;SDS011;8445;51.270;9.434;2023-03-14T09:25:37;3.13;;;1.10;;
16662;SDS011;8445;51.270;9.434;2023-03-14T09:28:02;2.13;;;1.15;;
16662;SDS011;8445;51.270;9.434;2023-03-14T09:30:28;1.80;;;1.30;;
16662;SDS011;8445;51.270;9.434;2023-03-14T09:32:54;1.92;;;1.38;;
16662;SDS011;8445;51.270;9.434;2023-03-14T09:35:19;2.65;;;2.08;;
16662;SDS011;8445;51.270;9.434;2023-03-14T09:37:45;2.63;;;1.42;;
16662;SDS011;8445;51.270;9.434;2023-03-14T09:40:12;3.92;;;2.00;;
16662;SDS011;8445;51.270;9.434;2023-03-14T09:42:39;1.65;;;1.50;;
16662;SDS011;8445;51.270;9.434;2023-03-14T09:45:26;2.70;;;1.58;;
16662;SDS011;8445;51.270;9.434;2023-03-14T09:47:55;2.67;;;1.30;;
16662;SDS011;8445;51.270;9.434;2023-03-14T09:50:21;1.67;;;1.35;;
16662;SDS011;8445;51.270;9.434;2023-03-14T09:52:49;3.50;;;1.90;;
16662;SDS011;8445;51.270;9.434;2023-03-14T09:55:21;4.28;;;1.90;;
16662;SDS011;8445;51.270;9.434;2023-03-14T09:58:03;4.93;;;1.80;;
16662;SDS011;8445;51.270;9.434;2023-03-14T10:00:35;3.00;;;1.58;;
16662;SDS011;8445;51.270;9.434;2023-03-14T10:05:38;3.72;;;1.80;;
16662;SDS011;8445;51.270;9.434;2023-03-14T10:08:05;2.83;;;1.80;;
16662;SDS011;8445;51.270;9.434;2023-03-14T10:10:33;3.22;;;1.75;;
16662;SDS011;8445;51.270;9.434;2023-03-14T10:12:59;3.10;;;1.85;;
16662;SDS011;8445;51.270;9.434;2023-03-14T10:15:37;2.72;;;1.67;;
16662;SDS011;8445;51.270;9.434;2023-03-14T10:18:04;2.55;;;1.67;;
16662;SDS011;8445;51.270;9.434;2023-03-14T10:20:43;4.65;;;1.70;;
16662;SDS011;8445;51.270;9.434;2023-03-14T10:25:41;4.63;;;1.80;;
16662;SDS011;8445;51.270;9.434;2023-03-14T10:28:22;2.83;;;1.30;;
16662;SDS011;8445;51.270;9.434;2023-03-14T10:30:50;3.20;;;1.38;;
16662;SDS011;8445;51.270;9.434;2023-03-14T10:35:54;2.03;;;1.55;;
16662;SDS011;8445;51.270;9.434;2023-03-14T10:38:22;2.72;;;1.60;;
16662;SDS011;8445;51.270;9.434;2023-03-14T10:40:52;2.47;;;1.48;;
16662;SDS011;8445;51.270;9.434;2023-03-14T10:43:24;1.30;;;1.20;;
16662;SDS011;8445;51.270;9.434;2023-03-14T10:45:53;2.50;;;1.50;;
16662;SDS011;8445;51.270;9.434;2023-03-14T10:53:38;1.80;;;1.17;;
16662;SDS011;8445;51.270;9.434;2023-03-14T10:56:12;1.50;;;1.20;;
16662;SDS011;8445;51.270;9.434;2023-03-14T10:58:40;2.20;;;1.20;;
16662;SDS011;8445;51.270;9.434;2023-03-14T11:10:24;0.93;;;0.88;;
16662;SDS011;8445;51.270;9.434;2023-03-14T11:24:57;0.90;;;0.68;;
16662;SDS011;8445;51.270;9.434;2023-03-14T11:27:44;0.82;;;0.70;;
16662;SDS011;8445;51.270;9.434;2023-03-14T11:33:16;2.20;;;0.50;;
16662;SDS011;8445;51.270;9.434;2023-03-14T11:38:29;2.20;;;0.40;;
16662;SDS011;8445;51.270;9.434;2023-03-14T11:41:02;1.17;;;0.70;;
16662;SDS011;8445;51.270;9.434;2023-03-14T11:43:34;2.42;;;0.50;;
16662;SDS011;8445;51.270;9.434;2023-03-14T11:51:43;1.83;;;1.13;;
16662;SDS011;8445;51.270;9.434;2023-03-14T11:56:59;5.45;;;1.10;;
16662;SDS011;8445;51.270;9.434;2023-03-14T11:59:33;1.35;;;1.10;;
16662;SDS011;8445;51.270;9.434;2023-03-14T12:02:25;1.85;;;1.20;;
16662;SDS011;8445;51.270;9.434;2023-03-14T12:05:22;2.95;;;0.95;;
16662;SDS011;8445;51.270;9.434;2023-03-14T12:13:10;1.60;;;0.90;;
16662;SDS011;8445;51.270;9.434;2023-03-14T12:15:39;1.55;;;0.80;;
16662;SDS011;8445;51.270;9.434;2023-03-14T12:18:28;2.17;;;0.50;;
16662;SDS011;8445;51.270;9.434;2023-03-14T12:20:54;1.17;;;0.47;;
16662;SDS011;8445;51.270;9.434;2023-03-14T12:23:22;0.75;;;0.57;;
16662;SDS011;8445;51.270;9.434;2023-03-14T12:26:05;1.15;;;0.90;;
16662;SDS011;8445;51.270;9.434;2023-03-14T12:28:33;0.70;;;0.50;;
16662;SDS011;8445;51.270;9.434;2023-03-14T12:50:25;0.75;;;0.60;;
16662;SDS011;8445;51.270;9.434;2023-03-14T12:53:32;0.40;;;0.40;;
16662;SDS011;8445;51.270;9.434;2023-03-14T12:56:18;0.40;;;0.40;;
16662;SDS011;8445;51.270;9.434;2023-03-14T13:01:24;0.68;;;0.50;;
16662;SDS011;8445;51.270;9.434;2023-03-14T13:12:14;0.30;;;0.30;;
16662;SDS011;8445;51.270;9.434;2023-03-14T13:14:43;0.50;;;0.50;;
16662;SDS011;8445;51.270;9.434;2023-03-14T13:17:12;0.50;;;0.50;;
16662;SDS011;8445;51.270;9.434;2023-03-14T13:19:39;0.45;;;0.40;;
16662;SDS011;8445;51.270;9.434;2023-03-14T13:22:06;0.80;;;0.55;;
16662;SDS011;8445;51.270;9.434;2023-03-14T13:24:42;0.47;;;0.47;;
16662;SDS011;8445;51.270;9.434;2023-03-14T13:27:14;0.40;;;0.40;;
16662;SDS011;8445;51.270;9.434;2023-03-14T13:29:44;0.30;;;0.30;;
16662;SDS011;8445;51.270;9.434;2023-03-14T13:32:16;0.40;;;0.40;;
16662;SDS011;8445;51.270;9.434;2023-03-14T13:34:45;0.40;;;0.40;;
16662;SDS011;8445;51.270;9.434;2023-03-14T13:58:46;0.40;;;0.40;;
16662;SDS011;8445;51.270;9.434;2023-03-14T14:01:14;0.83;;;0.53;;
16662;SDS011;8445;51.270;9.434;2023-03-14T14:03:42;0.70;;;0.60;;
16662;SDS011;8445;51.270;9.434;2023-03-14T14:06:16;2.37;;;1.00;;
16662;SDS011;8445;51.270;9.434;2023-03-14T14:08:48;2.43;;;1.33;;
16662;SDS011;8445;51.270;9.434;2023-03-14T14:14:02;3.08;;;0.82;;
16662;SDS011;8445;51.270;9.434;2023-03-14T14:16:29;5.53;;;1.47;;
16662;SDS011;8445;51.270;9.434;2023-03-14T14:18:56;3.30;;;1.23;;
16662;SDS011;8445;51.270;9.434;2023-03-14T14:21:24;3.00;;;1.40;;
16662;SDS011;8445;51.270;9.434;2023-03-14T14:23:50;1.97;;;1.10;;
16662;SDS011;8445;51.270;9.434;2023-03-14T14:26:17;5.00;;;1.60;;
16662;SDS011;8445;51.270;9.434;2023-03-14T14:28:44;4.05;;;1.40;;
16662;SDS011;8445;51.270;9.434;2023-03-14T14:39:20;3.17;;;1.45;;
16662;SDS011;8445;51.270;9.434;2023-03-14T14:41:51;4.40;;;1.75;;
16662;SDS011;8445;51.270;9.434;2023-03-14T14:44:18;4.93;;;1.42;;
16662;SDS011;8445;51.270;9.434;2023-03-14T14:46:49;4.57;;;1.70;;
16662;SDS011;8445;51.270;9.434;2023-03-14T14:49:20;3.47;;;1.38;;
16662;SDS011;8445;51.270;9.434;2023-03-14T14:51:50;2.28;;;1.60;;
16662;SDS011;8445;51.270;9.434;2023-03-14T14:54:17;3.47;;;1.52;;
16662;SDS011;8445;51.270;9.434;2023-03-14T14:56:48;4.20;;;1.65;;
16662;SDS011;8445;51.270;9.434;2023-03-14T14:59:21;6.70;;;2.20;;
16662;SDS011;8445;51.270;9.434;2023-03-14T15:01:54;2.42;;;1.50;;
16662;SDS011;8445;51.270;9.434;2023-03-14T15:04:21;6.97;;;1.92;;
16662;SDS011;8445;51.270;9.434;2023-03-14T15:06:47;3.47;;;1.48;;
16662;SDS011;8445;51.270;9.434;2023-03-14T15:09:15;4.20;;;1.73;;
16662;SDS011;8445;51.270;9.434;2023-03-14T15:11:42;7.20;;;2.30;;
16662;SDS011;8445;51.270;9.434;2023-03-14T15:14:08;5.88;;;1.67;;
16662;SDS011;8445;51.270;9.434;2023-03-14T15:16:33;4.10;;;1.42;;
16662;SDS011;8445;51.270;9.434;2023-03-14T15:19:00;6.70;;;1.90;;
16662;SDS011;8445;51.270;9.434;2023-03-14T15:21:30;3.90;;;1.85;;
16662;SDS011;8445;51.270;9.434;2023-03-14T15:23:56;6.85;;;1.35;;
16662;SDS011;8445;51.270;9.434;2023-03-14T15:26:23;2.45;;;1.27;;
16662;SDS011;8445;51.270;9.434;2023-03-14T15:28:51;6.60;;;1.50;;
16662;SDS011;8445;51.270;9.434;2023-03-14T15:31:17;5.95;;;1.88;;
16662;SDS011;8445;51.270;9.434;2023-03-14T15:33:44;6.82;;;1.65;;
16662;SDS011;8445;51.270;9.434;2023-03-14T15:36:23;6.85;;;2.05;;
16662;SDS011;8445;51.270;9.434;2023-03-14T15:38:56;13.25;;;2.65;;
16662;SDS011;8445;51.270;9.434;2023-03-14T15:41:23;9.40;;;2.95;;
16662;SDS011;8445;51.270;9.434;2023-03-14T15:43:49;11.45;;;2.63;;
16662;SDS011;8445;51.270;9.434;2023-03-14T15:46:16;8.43;;;2.40;;
16662;SDS011;8445;51.270;9.434;2023-03-14T15:48:45;8.17;;;2.33;;
16662;SDS011;8445;51.270;9.434;2023-03-14T15:51:12;17.83;;;3.17;;
16662;SDS011;8445;51.270;9.434;2023-03-14T15:53:38;11.33;;;2.87;;
16662;SDS011;8445;51.270;9.434;2023-03-14T15:56:04;9.23;;;2.30;;
16662;SDS011;8445;51.270;9.434;2023-03-14T15:58:31;12.82;;;3.25;;
16662;SDS011;8445;51.270;9.434;2023-03-14T16:00:59;12.03;;;2.47;;
16662;SDS011;8445;51.270;9.434;2023-03-14T16:03:26;10.73;;;2.57;;
16662;SDS011;8445;51.270;9.434;2023-03-14T16:05:52;13.82;;;2.45;;
16662;SDS011;8445;51.270;9.434;2023-03-14T16:08:17;13.63;;;3.03;;
16662;SDS011;8445;51.270;9.434;2023-03-14T16:10:43;8.63;;;2.77;;
16662;SDS011;8445;51.270;9.434;2023-03-14T16:13:08;12.40;;;2.80;;
16662;SDS011;8445;51.270;9.434;2023-03-14T16:15:33;13.97;;;2.80;;
16662;SDS011;8445;51.270;9.434;2023-03-14T16:17:59;11.23;;;2.80;;
16662;SDS011;8445;51.270;9.434;2023-03-14T16:20:24;12.73;;;2.43;;
16662;SDS011;8445;51.270;9.434;2023-03-14T16:22:50;15.30;;;3.50;;
16662;SDS011;8445;51.270;9.434;2023-03-14T16:25:16;12.53;;;3.33;;
16662;SDS011;8445;51.270;9.434;2023-03-14T16:27:42;15.00;;;3.20;;
16662;SDS011;8445;51.270;9.434;2023-03-14T16:30:09;12.87;;;3.33;;
16662;SDS011;8445;51.270;9.434;2023-03-14T16:32:35;8.43;;;2.90;;
16662;SDS011;8445;51.270;9.434;2023-03-14T16:35:01;13.43;;;3.10;;
16662;SDS011;8445;51.270;9.434;2023-03-14T16:37:29;16.90;;;4.10;;
16662;SDS011;8445;51.270;9.434;2023-03-14T16:39:54;11.27;;;3.05;;
16662;SDS011;8445;51.270;9.434;2023-03-14T16:42:20;10.83;;;3.27;;
16662;SDS011;8445;51.270;9.434;2023-03-14T16:44:46;8.53;;;3.20;;
16662;SDS011;8445;51.270;9.434;2023-03-14T16:47:11;10.63;;;2.47;;
16662;SDS011;8445;51.270;9.434;2023-03-14T16:49:37;13.53;;;3.20;;
16662;SDS011;8445;51.270;9.434;2023-03-14T16:52:03;9.90;;;3.33;;
16662;SDS011;8445;51.270;9.434;2023-03-14T16:54:29;13.30;;;2.97;;
16662;SDS011;8445;51.270;9.434;2023-03-14T16:56:55;12.97;;;3.00;;
16662;SDS011;8445;51.270;9.434;2023-03-14T16:59:22;10.97;;;2.70;;
16662;SDS011;8445;51.270;9.434;2023-03-14T17:01:50;14.93;;;2.90;;
16662;SDS011;8445;51.270;9.434;2023-03-14T17:04:16;17.00;;;3.27;;
16662;SDS011;8445;51.270;9.434;2023-03-14T17:06:41;9.90;;;2.93;;
16662;SDS011;8445;51.270;9.434;2023-03-14T17:09:09;17.40;;;3.90;;
16662;SDS011;8445;51.270;9.434;2023-03-14T17:11:34;13.70;;;2.93;;
16662;SDS011;8445;51.270;9.434;2023-03-14T17:14:01;8.23;;;2.57;;
16662;SDS011;8445;51.270;9.434;2023-03-14T17:16:29;14.30;;;3.00;;
16662;SDS011;8445;51.270;9.434;2023-03-14T17:18:59;15.63;;;2.80;;